GMFF

Details ICAO GMFF (FEZ)
Name SAISS
Region Morocco
Timezone Africa/Casablanca (UTC+0.0)
Plans Departing 36
Arriving 77
Stats Elevation 1,900 ft / 579 m (AMSL)
Location 33.927327° -4.977931°
Runways 1
Magnetic Variation 0.984° W
Sunrise 2018-05-26 05:13:42 UTC / 2018-05-26 05:13:42 Local
Sunset 2018-05-26 19:23:05 UTC / 2018-05-26 19:23:05 Local
Advertisement - Login to hide

Runways

ID Width Length Bearing (true) Bearing (mag) Surface Threshold Offset Overrun Length
09 148 ft / 45 m 10,461 ft / 3,189 m 90.26° 91.24° Asphalt 0 ft / 0 m 197 ft / 60 m
27 148 ft / 45 m 10,461 ft / 3,189 m 270.28° 271.26° Asphalt 820 ft / 250 m 0 ft / 0 m

Map

Weather


0- 5 10 15 20 25 30 35+ Temperature / ° C

Clouds and Precipitation
Forecast for 2018-05-26 00:00 UTC. Updated 2 hours ago

Ground ~20,000 ft ~40,000 ft Winds

METAR

GMFF 260100Z 22005KT 9999 BKN026 12/12 Q1015 NOSIG

TAF

TAF TAF GMFF 252300Z 2600/2706 20006KT 9999 BKN030 BECMG 2608/2612 32010KT TEMPO 2620/2702 TSRA BK026 SCT030CB

Frequencies

Tower 118.60 MHz TWR
Warning: Do not use this data for real-world aviation or navigation. No guarantee of current accuracy is given.